Time;durP1;ratioP1;P1;durP2;ratioP2;P2;SDS_P1;SDS_P2;PMS_P1;PMS_P2;Temp;Humidity;BMP_temperature;BMP_pressure;BME280_temperature;BME280_humidity;BME280_pressure;Samples;Min_cycle;Max_cycle;Signal;HPM_P1;HPM_P2
2021/06/19 00:02:17;;;;;;;12.75;9.82;;;;;;;24.83;57.12;100730.81;5071877;28;20500;-75
2021/06/19 00:04:43;;;;;;;12.32;10.60;;;;;;;24.86;56.73;100729.03;5055001;28;20058;-75
2021/06/19 00:07:09;;;;;;;16.48;10.90;;;;;;;24.80;57.27;100724.69;5071205;28;20243;-75
2021/06/19 00:09:36;;;;;;;11.93;10.27;;;;;;;24.91;57.14;100734.25;5054935;28;20017;-75
2021/06/19 00:12:03;;;;;;;13.30;10.43;;;;;;;24.92;57.12;100725.50;5071621;28;20430;-75
2021/06/19 00:14:29;;;;;;;14.85;10.10;;;;;;;24.86;57.57;100725.50;5071438;28;20031;-75
2021/06/19 00:16:55;;;;;;;12.00;9.77;;;;;;;24.94;57.05;100729.84;5073042;28;20020;-74
2021/06/19 00:19:20;;;;;;;16.33;10.77;;;;;;;24.94;57.49;100734.25;5054632;28;20026;-76
2021/06/19 00:21:47;;;;;;;13.93;10.75;;;;;;;24.82;57.87;100755.41;5054793;28;20085;-76
2021/06/19 00:24:22;;;;;;;12.07;9.93;;;;;;;24.82;57.96;100771.19;5071501;28;20381;-75
2021/06/19 00:26:48;;;;;;;15.85;12.05;;;;;;;24.38;59.56;100782.00;5035913;28;20032;-76
2021/06/19 00:29:15;;;;;;;17.33;13.23;;;;;;;24.55;60.11;100757.34;5050702;28;20455;-75
2021/06/19 00:31:41;;;;;;;16.25;12.90;;;;;;;24.25;60.69;100756.66;5060971;28;20495;-76
2021/06/19 00:34:07;;;;;;;15.07;12.00;;;;;;;24.57;60.40;100772.25;5051497;28;20112;-75
2021/06/19 00:36:32;;;;;;;16.10;12.43;;;;;;;24.58;60.42;100778.38;5054334;28;20135;-75
2021/06/19 00:38:58;;;;;;;16.48;13.82;;;;;;;24.60;60.44;100777.50;5071310;28;20470;-75
2021/06/19 00:41:26;;;;;;;17.55;13.45;;;;;;;24.68;60.75;100764.25;5071381;28;20166;-76
2021/06/19 00:43:53;;;;;;;16.45;13.77;;;;;;;24.36;61.25;100746.94;5054385;28;20485;-75
2021/06/19 00:46:18;;;;;;;16.20;13.02;;;;;;;24.74;60.42;100780.03;5071422;28;20077;-75
2021/06/19 00:48:44;;;;;;;18.60;13.45;;;;;;;24.76;60.08;100790.59;5072401;28;20043;-75
2021/06/19 00:51:09;;;;;;;17.42;12.95;;;;;;;24.75;60.80;100781.78;5071544;28;20043;-74
2021/06/19 00:53:35;;;;;;;19.40;14.00;;;;;;;24.86;60.16;100762.38;5054266;28;20025;-75
2021/06/19 00:56:02;;;;;;;18.38;14.18;;;;;;;24.00;63.47;100759.41;5054363;28;20029;-75
2021/06/19 00:58:29;;;;;;;14.80;13.30;;;;;;;24.59;61.85;100764.31;5070963;28;20028;-75
2021/06/19 01:00:54;;;;;;;15.80;14.10;;;;;;;24.72;61.15;100776.50;5071166;28;20108;-75
2021/06/19 01:03:20;;;;;;;17.00;14.45;;;;;;;24.67;61.31;100773.03;5072043;28;20108;-75
2021/06/19 01:05:46;;;;;;;16.42;14.73;;;;;;;24.55;61.65;100762.59;5071106;28;20024;-76
2021/06/19 01:08:11;;;;;;;17.63;15.05;;;;;;;24.61;62.05;100752.03;5072246;28;20040;-75
2021/06/19 01:10:36;;;;;;;18.65;15.57;;;;;;;24.59;61.91;100764.31;5054321;28;20470;-75
2021/06/19 01:13:04;;;;;;;19.35;14.00;;;;;;;24.69;61.61;100754.59;5053893;28;20035;-75
2021/06/19 01:15:29;;;;;;;18.70;13.88;;;;;;;24.73;61.39;100751.97;5072210;28;20020;-75
2021/06/19 01:17:55;;;;;;;20.13;14.77;;;;;;;24.80;61.02;100756.28;5054235;28;20021;-74
2021/06/19 01:20:21;;;;;;;17.75;14.85;;;;;;;24.77;61.47;100753.69;5072209;28;20038;-75
2021/06/19 01:22:53;;;;;;;21.40;15.15;;;;;;;24.09;63.61;100725.16;5053819;28;20028;-75
2021/06/19 01:25:23;;;;;;;18.02;15.38;;;;;;;24.41;62.56;100734.59;5054402;28;20038;-74
2021/06/19 01:27:52;;;;;;;15.52;13.93;;;;;;;24.54;62.25;100745.06;5070883;28;20024;-74
2021/06/19 01:30:20;;;;;;;17.88;14.93;;;;;;;24.65;62.09;100740.56;5054456;28;20021;-75
2021/06/19 01:32:46;;;;;;;17.02;14.68;;;;;;;24.50;62.16;100738.94;5111899;28;20048;-74
2021/06/19 01:35:12;;;;;;;28.52;22.33;;;;;;;23.80;64.78;100731.38;5112652;28;20038;-74
2021/06/19 01:37:43;;;;;;;43.15;30.70;;;;;;;23.74;65.09;100723.53;5094399;28;20019;-75
2021/06/19 01:40:13;;;;;;;29.90;21.33;;;;;;;24.04;64.52;100729.56;5095754;28;20027;-75
2021/06/19 01:42:40;;;;;;;21.88;18.45;;;;;;;24.17;63.84;100726.00;5080851;28;20500;-76
2021/06/19 01:45:20;;;;;;;22.20;18.60;;;;;;;24.28;63.40;100727.69;5097708;28;20051;-75
2021/06/19 01:47:46;;;;;;;20.52;17.35;;;;;;;24.23;63.52;100724.22;5097805;28;20473;-75
2021/06/19 01:50:14;;;;;;;20.33;16.23;;;;;;;24.14;63.60;100725.13;5097918;28;20036;-75
2021/06/19 01:52:40;;;;;;;18.75;15.57;;;;;;;24.14;63.74;100731.28;5097240;28;20563;-75
2021/06/19 01:55:07;;;;;;;17.83;15.93;;;;;;;24.14;64.06;100726.00;5115743;28;20032;-75
2021/06/19 01:57:36;;;;;;;19.35;15.57;;;;;;;24.15;63.83;100727.75;5097596;28;20024;-76
2021/06/19 02:00:13;;;;;;;17.92;16.13;;;;;;;24.14;63.35;100731.28;5065097;27;20115;-75
2021/06/19 02:02:39;;;;;;;18.42;15.50;;;;;;;24.21;63.56;100743.50;5106379;27;20361;-75
2021/06/19 02:05:06;;;;;;;18.13;15.50;;;;;;;24.23;63.16;100745.25;5091490;27;20041;-75
2021/06/19 02:07:33;;;;;;;16.33;14.65;;;;;;;24.14;63.30;100747.06;5112835;27;20094;-75
2021/06/19 02:09:59;;;;;;;18.80;15.63;;;;;;;24.10;63.58;100740.06;5104906;28;20464;-75
2021/06/19 02:12:25;;;;;;;18.95;15.88;;;;;;;23.96;63.97;100733.97;5121231;27;20600;-75
2021/06/19 02:14:50;;;;;;;17.45;15.65;;;;;;;23.95;64.44;100734.84;5080563;28;20124;-75
2021/06/19 02:17:16;;;;;;;18.50;15.80;;;;;;;23.93;64.19;100733.09;5113423;27;20106;-74
2021/06/19 02:19:41;;;;;;;19.40;16.73;;;;;;;23.93;64.51;100738.38;5090486;28;20077;-75
2021/06/19 02:22:07;;;;;;;22.58;16.40;;;;;;;23.93;64.39;100733.09;5115534;28;20440;-74
2021/06/19 02:24:32;;;;;;;19.55;16.25;;;;;;;23.38;66.17;100722.78;5080348;28;20023;-74
2021/06/19 02:27:11;;;;;;;19.35;15.73;;;;;;;23.73;65.48;100729.66;5097194;28;20072;-74
2021/06/19 02:29:37;;;;;;;21.33;15.35;;;;;;;23.73;64.89;100719.16;5096882;28;20034;-74
2021/06/19 02:32:05;;;;;;;20.92;15.15;;;;;;;23.69;65.44;100714.78;5097035;28;20075;-75
2021/06/19 02:34:30;;;;;;;17.88;16.00;;;;;;;23.71;65.20;100710.38;5096949;28;20046;-75
2021/06/19 02:36:56;;;;;;;18.77;16.02;;;;;;;23.47;66.09;100702.63;5080195;28;20023;-74
2021/06/19 02:39:21;;;;;;;17.63;15.73;;;;;;;23.28;66.87;100701.78;5096913;28;20028;-75
2021/06/19 02:41:47;;;;;;;19.95;16.52;;;;;;;23.56;65.58;100706.09;5097022;28;20023;-75
2021/06/19 02:44:12;;;;;;;17.60;15.73;;;;;;;23.60;65.38;100713.94;5096899;28;20035;-75
2021/06/19 02:46:37;;;;;;;18.17;16.20;;;;;;;23.55;65.67;100705.19;5115103;28;20047;-75
2021/06/19 02:49:03;;;;;;;17.20;15.40;;;;;;;23.49;65.85;100721.00;5096037;28;20085;-75
2021/06/19 02:51:28;;;;;;;19.13;16.52;;;;;;;23.49;65.77;100713.09;5096118;28;20032;-75
2021/06/19 02:53:55;;;;;;;20.45;16.42;;;;;;;23.46;66.09;100721.00;5114955;28;20024;-75
2021/06/19 02:56:20;;;;;;;18.42;16.35;;;;;;;23.45;66.21;100730.66;5104471;27;20541;-75
2021/06/19 02:58:46;;;;;;;18.80;16.33;;;;;;;23.45;66.18;100724.50;5105347;28;20166;-74
2021/06/19 03:01:11;;;;;;;19.85;16.52;;;;;;;23.46;65.78;100723.63;5106916;27;20015;-74
2021/06/19 03:03:36;;;;;;;22.70;17.67;;;;;;;23.45;66.32;100729.75;5087583;28;20491;-75
2021/06/19 03:06:02;;;;;;;19.15;17.05;;;;;;;23.33;66.63;100731.53;5093811;28;20028;-75
2021/06/19 03:08:28;;;;;;;21.20;17.23;;;;;;;23.28;66.99;100733.31;5076066;28;20144;-75
2021/06/19 03:10:54;;;;;;;20.27;17.15;;;;;;;23.13;67.00;100722.78;5059392;28;20024;-75
2021/06/19 03:13:20;;;;;;;18.38;16.08;;;;;;;23.12;67.34;100731.56;5060584;28;20040;-75
2021/06/19 03:15:46;;;;;;;20.92;17.27;;;;;;;23.28;66.54;100717.53;5076103;28;20385;-75
2021/06/19 03:18:12;;;;;;;18.77;16.58;;;;;;;23.26;66.89;100724.56;5075963;28;20058;-75
2021/06/19 03:20:37;;;;;;;19.80;16.65;;;;;;;23.20;66.77;100729.78;5059200;28;20095;-74
2021/06/19 03:23:05;;;;;;;19.75;17.60;;;;;;;23.23;66.75;100729.78;5081543;28;20151;-75
2021/06/19 03:25:42;;;;;;;19.08;16.98;;;;;;;23.11;67.23;100727.19;5096018;28;20031;-75
2021/06/19 03:28:09;;;;;;;24.00;17.77;;;;;;;23.32;66.64;100723.66;5096013;28;20019;-74
2021/06/19 03:30:36;;;;;;;18.55;16.70;;;;;;;23.40;66.08;100726.28;5113930;28;20023;-75
2021/06/19 03:33:03;;;;;;;21.48;17.67;;;;;;;23.23;66.45;100735.03;5073364;28;20073;-75
2021/06/19 03:35:30;;;;;;;21.98;17.38;;;;;;;23.38;66.43;100749.06;5075634;28;20084;-75
2021/06/19 03:37:57;;;;;;;21.70;17.75;;;;;;;23.46;66.03;100742.03;5075664;28;20051;-75
2021/06/19 03:40:23;;;;;;;18.85;16.67;;;;;;;23.50;65.69;100743.75;5075659;28;20106;-74
2021/06/19 03:42:50;;;;;;;20.63;16.73;;;;;;;23.52;65.95;100741.16;5078657;28;20023;-75
2021/06/19 03:45:16;;;;;;;21.90;17.92;;;;;;;23.36;66.63;100735.94;5095784;28;20370;-75
2021/06/19 03:47:43;;;;;;;22.05;16.88;;;;;;;23.50;65.76;100743.75;5095473;28;20055;-75
2021/06/19 03:50:10;;;;;;;20.30;17.42;;;;;;;23.47;66.23;100743.78;5078795;28;20357;-75
2021/06/19 03:52:36;;;;;;;19.90;16.85;;;;;;;23.55;65.57;100742.00;5093738;28;20479;-75
2021/06/19 03:55:02;;;;;;;18.70;16.73;;;;;;;23.54;66.02;100740.25;5058466;28;20028;-75
2021/06/19 03:57:30;;;;;;;18.70;16.23;;;;;;;23.52;65.98;100741.16;5091839;28;20037;-74
2021/06/19 03:59:56;;;;;;;19.75;16.60;;;;;;;23.68;65.39;100747.22;5095512;28;20019;-75
2021/06/19 04:02:22;;;;;;;23.45;17.60;;;;;;;23.80;65.07;100752.41;5078345;28;20050;-74
2021/06/19 04:04:48;;;;;;;21.42;16.95;;;;;;;23.91;64.96;100750.66;5075307;28;20077;-75
2021/06/19 04:07:13;;;;;;;21.58;15.32;;;;;;;23.72;65.33;100743.69;5093073;28;20071;-75
2021/06/19 04:09:39;;;;;;;18.88;15.68;;;;;;;23.98;64.42;100740.09;5074545;28;20042;-75
2021/06/19 04:12:06;;;;;;;18.00;15.50;;;;;;;23.75;65.22;100739.31;5091393;28;20036;-75
2021/06/19 04:14:32;;;;;;;20.40;16.20;;;;;;;23.70;65.57;100730.56;5113337;28;20061;-74
2021/06/19 04:16:58;;;;;;;19.60;16.35;;;;;;;23.67;66.00;100748.09;5095495;28;20051;-74
2021/06/19 04:19:24;;;;;;;17.67;15.73;;;;;;;23.85;65.27;100740.13;5078249;28;20509;-75
2021/06/19 04:21:49;;;;;;;18.25;15.48;;;;;;;24.07;64.75;100740.09;5080691;28;20032;-74
2021/06/19 04:24:14;;;;;;;16.63;15.02;;;;;;;24.11;64.33;100736.56;5074930;28;20032;-75
2021/06/19 04:26:40;;;;;;;27.75;16.08;;;;;;;23.89;65.33;100747.16;5081740;28;20102;-75
2021/06/19 04:29:06;;;;;;;17.88;14.90;;;;;;;23.98;65.08;100748.00;5113437;28;20027;-75
2021/06/19 04:31:31;;;;;;;22.17;15.50;;;;;;;24.09;65.03;100759.38;5079827;28;20044;-74
2021/06/19 04:33:58;;;;;;;22.38;16.80;;;;;;;23.63;66.29;100761.25;5072628;28;20082;-75
2021/06/19 04:36:25;;;;;;;18.38;15.70;;;;;;;23.87;66.28;100769.97;5071539;28;20052;-75
2021/06/19 04:38:51;;;;;;;16.65;14.95;;;;;;;24.04;65.35;100761.16;5076243;28;20431;-75
2021/06/19 04:41:36;;;;;;;19.52;16.40;;;;;;;24.07;65.30;100761.13;5080078;28;20028;-74
2021/06/19 04:46:28;;;;;;;19.92;17.20;;;;;;;24.24;64.79;100762.78;5081444;28;20009;-74
2021/06/19 04:48:53;;;;;;;17.65;15.82;;;;;;;24.36;64.28;100768.00;5079923;28;20027;-74
2021/06/19 04:51:19;;;;;;;18.27;16.13;;;;;;;24.43;64.93;100759.16;5080769;28;20028;-73
2021/06/19 04:53:45;;;;;;;23.38;17.02;;;;;;;24.47;64.50;100763.53;5079889;28;20021;-75
2021/06/19 04:56:11;;;;;;;18.05;15.05;;;;;;;24.51;64.47;100762.63;5080834;28;20443;-74
2021/06/19 04:58:37;;;;;;;17.27;15.48;;;;;;;24.48;64.77;100767.91;5064521;28;20020;-74
2021/06/19 05:01:03;;;;;;;18.65;15.63;;;;;;;24.47;65.68;100781.94;5079279;28;20031;-74
2021/06/19 05:03:28;;;;;;;19.50;15.20;;;;;;;24.62;64.59;100782.72;5081496;28;20039;-74
2021/06/19 05:05:54;;;;;;;19.08;16.17;;;;;;;24.63;64.61;100776.59;5079984;28;20030;-74
2021/06/19 05:08:20;;;;;;;22.08;15.95;;;;;;;24.61;65.26;100783.63;5080703;28;20066;-74
2021/06/19 05:10:45;;;;;;;21.90;16.38;;;;;;;24.72;64.99;100783.56;5081093;28;20095;-74
2021/06/19 05:13:11;;;;;;;18.23;16.25;;;;;;;24.74;64.80;100780.03;5080828;28;20020;-74
2021/06/19 05:15:36;;;;;;;21.40;17.67;;;;;;;24.76;64.03;100778.28;5084074;28;20060;-75
2021/06/19 05:18:02;;;;;;;18.88;16.90;;;;;;;24.84;63.94;100785.22;5084868;28;20069;-75
2021/06/19 05:20:28;;;;;;;19.90;17.52;;;;;;;24.73;64.36;100780.94;5083347;28;20043;-74
2021/06/19 05:22:55;;;;;;;21.27;17.23;;;;;;;24.83;64.48;100767.69;5081409;28;20436;-74
2021/06/19 05:25:21;;;;;;;19.27;17.35;;;;;;;24.85;64.40;100784.34;5084496;28;20062;-74
2021/06/19 05:27:46;;;;;;;24.02;18.67;;;;;;;24.87;64.28;100785.22;5085177;28;20048;-74
2021/06/19 05:30:13;;;;;;;26.85;17.98;;;;;;;24.99;63.70;100790.41;5082360;28;20012;-75
2021/06/19 05:32:38;;;;;;;22.02;17.75;;;;;;;25.02;64.34;100790.38;5097539;28;20516;-75
2021/06/19 05:35:04;;;;;;;23.80;17.63;;;;;;;25.06;63.80;100792.09;5087338;28;20020;-76
2021/06/19 05:37:30;;;;;;;22.70;18.30;;;;;;;25.05;64.05;100802.63;5082902;28;20032;-75
2021/06/19 05:39:55;;;;;;;27.42;21.05;;;;;;;25.06;63.98;100797.38;5083373;28;20431;-75
2021/06/19 05:42:21;;;;;;;27.30;19.15;;;;;;;25.05;64.31;100806.16;5092897;28;20032;-74
2021/06/19 05:44:47;;;;;;;27.85;19.02;;;;;;;25.14;63.82;100809.59;5094686;28;20028;-75
2021/06/19 05:47:12;;;;;;;22.70;19.08;;;;;;;25.16;64.25;100810.47;5062830;28;20541;-75
2021/06/19 05:49:38;;;;;;;23.45;19.27;;;;;;;25.27;64.18;100815.63;5075369;28;20108;-76
2021/06/19 05:52:05;;;;;;;28.70;21.02;;;;;;;25.20;64.04;100815.69;5056807;28;20178;-75
2021/06/19 05:54:35;;;;;;;23.65;19.48;;;;;;;25.25;64.89;100823.56;5056961;28;20478;-76
2021/06/19 05:57:05;;;;;;;23.63;21.13;;;;;;;25.21;64.25;100816.56;5073558;28;20081;-75
2021/06/19 05:59:31;;;;;;;23.77;20.42;;;;;;;25.37;64.05;100822.56;5075266;28;20024;-75
2021/06/19 06:01:57;;;;;;;24.90;21.83;;;;;;;25.38;63.90;100819.91;5074269;28;20032;-75
2021/06/19 06:04:22;;;;;;;24.15;21.20;;;;;;;25.30;64.49;100811.22;5074237;28;20489;-74
2021/06/19 06:06:48;;;;;;;23.63;21.17;;;;;;;25.43;64.99;100816.38;5073869;28;20033;-74
2021/06/19 06:09:14;;;;;;;26.52;22.23;;;;;;;25.46;64.12;100822.53;5074504;28;20212;-74
2021/06/19 06:11:40;;;;;;;30.23;21.98;;;;;;;25.41;64.60;100819.00;5072538;28;20105;-74
2021/06/19 06:14:08;;;;;;;30.85;22.55;;;;;;;25.24;65.04;100827.94;5072229;28;20500;-74
2021/06/19 06:16:34;;;;;;;26.20;23.02;;;;;;;25.49;64.50;100832.16;5072170;28;20477;-75
2021/06/19 06:19:01;;;;;;;26.20;22.00;;;;;;;25.74;63.79;100837.16;5055768;28;20032;-75
2021/06/19 06:21:26;;;;;;;24.70;21.50;;;;;;;25.71;64.38;100837.22;5055738;28;20026;-74
2021/06/19 06:23:52;;;;;;;23.83;21.10;;;;;;;26.00;62.90;100838.66;5055679;28;20020;-74
2021/06/19 06:26:18;;;;;;;26.55;21.45;;;;;;;25.92;63.20;100830.81;5070861;28;20066;-74
2021/06/19 06:28:44;;;;;;;24.83;20.00;;;;;;;26.21;62.93;100837.53;5072189;28;20036;-76
2021/06/19 06:31:09;;;;;;;23.73;21.13;;;;;;;26.27;62.22;100844.53;5078706;28;20276;-75
2021/06/19 06:33:36;;;;;;;24.92;19.67;;;;;;;26.04;62.53;100841.22;5093317;28;20058;-73
2021/06/19 06:36:02;;;;;;;21.50;18.05;;;;;;;26.31;61.98;100843.59;5075511;28;20430;-73
2021/06/19 06:38:28;;;;;;;20.92;18.60;;;;;;;26.42;60.46;100846.94;5076587;28;20062;-73
2021/06/19 06:40:53;;;;;;;21.90;16.27;;;;;;;26.66;60.01;100851.03;5101234;28;20022;-74
2021/06/19 06:43:19;;;;;;;19.92;15.38;;;;;;;26.82;60.36;100846.38;5103871;28;20079;-75
2021/06/19 06:45:44;;;;;;;20.33;15.30;;;;;;;26.96;59.41;100848.84;5101909;28;20020;-74
2021/06/19 06:48:10;;;;;;;18.40;14.82;;;;;;;27.12;59.03;100844.19;5085148;28;20035;-75
2021/06/19 06:50:36;;;;;;;16.40;13.50;;;;;;;27.17;58.37;100846.75;5102027;28;20069;-74
2021/06/19 06:53:02;;;;;;;20.40;13.57;;;;;;;27.36;57.01;100852.59;5103302;28;20457;-74
2021/06/19 06:55:28;;;;;;;17.60;13.38;;;;;;;27.30;54.87;100858.00;5102438;28;20024;-78
2021/06/19 06:57:53;;;;;;;15.63;12.57;;;;;;;27.41;55.07;100860.44;5099641;28;20016;-78
2021/06/19 07:00:21;;;;;;;17.30;11.82;;;;;;;27.32;54.39;100856.19;5097172;28;20453;-79
2021/06/19 07:02:47;;;;;;;27.15;12.75;;;;;;;27.42;53.59;100852.50;5101618;28;20034;-78
2021/06/19 07:05:13;;;;;;;16.50;11.25;;;;;;;27.51;53.40;100855.91;5085248;28;20035;-80
2021/06/19 07:07:39;;;;;;;19.02;11.05;;;;;;;27.49;53.69;100860.31;5100639;28;20037;-78
2021/06/19 07:10:07;;;;;;;20.50;10.07;;;;;;;27.64;54.52;100862.72;5096997;28;20158;-80
2021/06/19 07:12:33;;;;;;;10.98;9.57;;;;;;;27.96;53.85;100863.84;5082612;28;20028;-79
2021/06/19 07:14:58;;;;;;;22.40;10.88;;;;;;;28.09;51.78;100864.50;5095936;28;20020;-77
2021/06/19 07:17:25;;;;;;;16.65;9.95;;;;;;;28.39;52.14;100855.97;5092298;28;20460;-77
2021/06/19 07:19:50;;;;;;;15.05;8.85;;;;;;;28.07;51.33;100865.41;5097849;28;20740;-76
2021/06/19 07:22:16;;;;;;;14.18;9.02;;;;;;;28.29;50.42;100863.22;5091929;28;20020;-84
2021/06/19 07:24:42;;;;;;;11.77;7.47;;;;;;;28.14;50.58;100853.84;5082269;28;20058;-81
2021/06/19 07:27:08;;;;;;;10.60;7.93;;;;;;;28.44;50.40;100870.00;5078269;28;20031;-82
2021/06/19 07:29:34;;;;;;;14.77;8.52;;;;;;;28.45;48.81;100865.53;5092165;28;20148;-85
2021/06/19 07:31:59;;;;;;;14.60;7.38;;;;;;;28.46;49.44;100868.19;5094730;28;20515;-83
2021/06/19 07:34:27;;;;;;;11.82;7.95;;;;;;;28.50;48.26;100855.72;5105381;28;20028;-87
2021/06/19 07:36:53;;;;;;;18.05;7.97;;;;;;;28.64;49.83;100866.91;5075861;28;20059;-85
2021/06/19 07:39:18;;;;;;;11.65;7.43;;;;;;;28.79;48.52;100865.69;5084067;27;20051;-85
2021/06/19 07:41:48;;;;;;;9.77;6.80;;;;;;;28.82;48.44;100868.28;5096732;28;20382;-87
2021/06/19 07:44:14;;;;;;;10.85;7.20;;;;;;;28.87;47.78;100868.19;5095726;28;20031;-87
2021/06/19 07:46:41;;;;;;;19.83;7.20;;;;;;;29.03;47.75;100862.50;5095794;28;20111;-87
2021/06/19 07:49:07;;;;;;;13.93;8.00;;;;;;;29.10;47.41;100864.94;5095807;28;20423;-85
2021/06/19 07:51:33;;;;;;;9.25;7.13;;;;;;;29.04;48.16;100865.09;5078690;28;20024;-83
2021/06/19 07:53:59;;;;;;;9.43;6.75;;;;;;;29.29;48.08;100875.13;5113805;28;20066;-86
2021/06/19 07:56:25;;;;;;;9.95;6.88;;;;;;;29.32;46.33;100869.75;5095524;28;20051;-85
2021/06/19 07:58:53;;;;;;;15.65;6.40;;;;;;;29.31;45.51;100873.31;5113533;28;20484;-89
2021/06/19 08:01:18;;;;;;;9.80;5.68;;;;;;;29.41;45.68;100869.53;5094997;28;20028;-77
2021/06/19 08:03:44;;;;;;;13.57;6.53;;;;;;;29.58;44.85;100873.50;5095397;28;20058;-82
2021/06/19 08:06:09;;;;;;;9.90;6.47;;;;;;;29.50;45.26;100864.91;5095259;28;20035;-80
2021/06/19 08:08:35;;;;;;;9.15;6.47;;;;;;;29.68;45.58;100867.03;5095173;28;20073;-82
2021/06/19 08:11:00;;;;;;;9.40;5.40;;;;;;;29.85;44.56;100865.72;5095511;28;20067;-79
2021/06/19 08:13:27;;;;;;;8.98;4.55;;;;;;;29.95;42.62;100869.84;5113450;28;20019;-77
2021/06/19 08:19:14;;;;;;;14.40;5.38;;;;;;;30.11;42.78;100890.69;5106746;27;20488;-76
2021/06/19 08:21:40;;;;;;;14.73;4.60;;;;;;;30.27;42.18;100892.00;5121129;27;20039;-78
2021/06/19 08:24:07;;;;;;;6.88;4.00;;;;;;;30.24;42.24;100886.78;5101963;27;20023;-76
2021/06/19 08:26:36;;;;;;;8.13;3.63;;;;;;;30.20;41.61;100879.78;5120885;27;20423;-79
2021/06/19 08:29:06;;;;;;;7.15;3.47;;;;;;;30.17;40.65;100895.81;5113224;27;20027;-78
2021/06/19 08:31:35;;;;;;;7.20;3.42;;;;;;;30.14;40.67;100885.28;5091857;28;20051;-80
2021/06/19 08:34:02;;;;;;;7.50;3.50;;;;;;;30.30;40.72;100885.72;5086543;28;20059;-78
2021/06/19 08:36:28;;;;;;;7.60;3.65;;;;;;;30.70;40.50;100894.28;5086697;28;20024;-82
2021/06/19 08:38:53;;;;;;;8.77;3.40;;;;;;;30.86;40.50;100894.69;5065000;28;20028;-80
2021/06/19 08:41:21;;;;;;;8.65;4.38;;;;;;;30.90;38.88;100894.53;5090199;28;20051;-81
2021/06/19 08:43:47;;;;;;;7.35;3.38;;;;;;;30.99;38.86;100896.03;5090002;28;20012;-82
2021/06/19 08:46:19;;;;;;;4.97;3.38;;;;;;;31.24;38.18;100907.66;5090640;28;20111;-81
2021/06/19 08:48:49;;;;;;;5.13;3.30;;;;;;;31.24;37.00;100907.66;5081901;28;20028;-84
2021/06/19 08:51:15;;;;;;;4.07;2.38;;;;;;;30.98;37.43;100894.28;5089788;28;20211;-87
2021/06/19 08:53:41;;;;;;;8.10;2.40;;;;;;;31.11;36.74;100905.38;5094399;28;20522;-89
2021/06/19 08:56:06;;;;;;;12.80;2.35;;;;;;;31.21;35.24;100915.75;5093283;28;20380;-78
2021/06/19 08:58:32;;;;;;;6.05;2.35;;;;;;;31.03;35.76;100902.09;5095088;28;20042;-79
2021/06/19 09:00:58;;;;;;;4.20;2.22;;;;;;;30.86;36.41;100895.53;5094038;28;20027;-76
2021/06/19 09:03:26;;;;;;;9.50;2.28;;;;;;;30.78;37.11;100902.03;5094597;28;20035;-82
2021/06/19 09:05:52;;;;;;;3.83;1.80;;;;;;;30.98;35.63;100904.94;5082011;28;20028;-79
2021/06/19 09:08:19;;;;;;;5.60;2.10;;;;;;;31.47;36.08;100897.13;5073955;28;20024;-81
2021/06/19 09:10:45;;;;;;;3.95;1.60;;;;;;;31.80;34.30;100903.16;5081965;28;20030;-82
2021/06/19 09:13:15;;;;;;;3.67;1.80;;;;;;;31.76;33.22;100908.59;5092308;28;20026;-80
2021/06/19 09:15:44;;;;;;;3.72;1.90;;;;;;;31.88;33.85;100895.75;5086424;28;20081;-81
2021/06/19 09:18:14;;;;;;;5.57;1.70;;;;;;;31.86;34.42;100897.59;5094478;28;20012;-79
2021/06/19 09:20:58;;;;;;;4.32;2.35;;;;;;;32.08;33.07;100902.13;5094848;28;20104;-88
2021/06/19 09:23:33;;;;;;;4.03;1.60;;;;;;;32.68;32.31;100901.69;5094987;28;20028;-87
2021/06/19 09:26:10;;;;;;;5.35;1.73;;;;;;;33.13;31.70;100908.78;5094509;28;20047;-79
2021/06/19 09:29:06;;;;;;;5.70;1.75;;;;;;;33.26;32.09;100902.91;5095297;28;20024;-81
2021/06/19 09:31:36;;;;;;;6.80;1.52;;;;;;;33.69;30.31;100901.13;5101874;28;20050;-83
2021/06/19 09:34:09;;;;;;;5.18;1.50;;;;;;;35.07;29.62;100909.97;5097198;28;20099;-81
2021/06/19 09:36:41;;;;;;;5.82;1.50;;;;;;;36.30;25.01;100904.53;5114583;28;20020;-82
2021/06/19 09:39:08;;;;;;;4.03;1.40;;;;;;;36.27;25.45;100907.38;5090690;28;20030;-85
2021/06/19 09:41:38;;;;;;;2.38;1.33;;;;;;;35.02;27.02;100910.22;5116006;28;20019;-84
2021/06/19 09:44:04;;;;;;;2.35;1.25;;;;;;;35.96;26.77;100911.69;5088502;28;20077;-85
2021/06/19 09:46:31;;;;;;;4.03;1.98;;;;;;;35.08;27.85;100919.75;5097189;28;20031;-88
2021/06/19 09:49:17;;;;;;;2.78;1.30;;;;;;;35.71;27.06;100929.09;5098529;28;20031;-81
2021/06/19 09:51:48;;;;;;;5.35;1.60;;;;;;;36.91;26.09;100920.81;5096925;28;20564;-84
2021/06/19 09:54:14;;;;;;;6.25;1.63;;;;;;;37.63;23.71;100930.09;5096745;28;20495;-82
2021/06/19 09:56:47;;;;;;;2.72;1.30;;;;;;;38.69;22.93;100940.59;5097306;28;20036;-79
2021/06/19 09:59:30;;;;;;;2.00;1.25;;;;;;;40.33;20.59;100936.72;5114377;28;20012;-88
2021/06/19 10:02:04;;;;;;;3.75;1.55;;;;;;;40.05;20.26;100933.28;5104191;27;20468;-80
2021/06/19 10:04:31;;;;;;;1.95;1.50;;;;;;;42.81;17.57;100937.56;5095148;27;20042;-78
2021/06/19 10:06:57;;;;;;;5.65;1.90;;;;;;;43.73;16.72;100944.31;5097911;28;20136;-78
2021/06/19 10:09:23;;;;;;;3.25;1.88;;;;;;;44.52;15.92;100933.78;5106617;27;20027;-78
2021/06/19 10:11:54;;;;;;;3.78;1.60;;;;;;;44.26;15.54;100928.84;5081005;27;20384;-78
2021/06/19 10:14:23;;;;;;;3.30;1.73;;;;;;;43.56;16.52;100933.06;5124925;27;20030;-78
2021/06/19 10:16:51;;;;;;;4.85;1.73;;;;;;;45.52;15.00;100942.66;5128085;27;20156;-78
2021/06/19 10:19:19;;;;;;;5.75;1.67;;;;;;;45.21;15.18;100934.69;5087464;27;20072;-79
2021/06/19 10:21:46;;;;;;;4.10;1.50;;;;;;;45.59;14.34;100938.34;5090481;28;20023;-76
2021/06/19 10:24:13;;;;;;;3.95;1.45;;;;;;;46.41;13.77;100926.88;5114754;27;20054;-80
2021/06/19 10:26:39;;;;;;;6.10;1.95;;;;;;;46.24;13.66;100943.00;5080422;28;20030;-84
2021/06/19 10:29:06;;;;;;;6.43;2.10;;;;;;;46.16;13.85;100934.75;5095066;28;20023;-83
2021/06/19 10:31:43;;;;;;;5.30;1.40;;;;;;;45.04;15.31;100934.41;5062634;28;20045;-83
2021/06/19 10:34:32;;;;;;;1.98;1.30;;;;;;;44.24;16.30;100936.28;5074431;28;20387;-88
2021/06/19 10:37:04;;;;;;;3.33;1.63;;;;;;;45.29;14.06;100937.56;5069413;28;20036;-74
2021/06/19 10:39:39;;;;;;;3.28;1.52;;;;;;;45.54;14.36;100929.78;5070147;28;20024;-73
2021/06/19 10:42:05;;;;;;;5.78;1.55;;;;;;;45.70;14.66;100939.22;5079522;28;20022;-76
2021/06/19 10:44:50;;;;;;;2.05;1.25;;;;;;;44.46;14.82;100936.03;5092613;28;20122;-76
2021/06/19 10:47:20;;;;;;;3.63;1.40;;;;;;;43.62;16.28;100937.94;5092482;28;20034;-77
2021/06/19 10:49:47;;;;;;;2.90;1.23;;;;;;;42.70;17.29;100942.03;5062101;28;20579;-73
2021/06/19 10:52:37;;;;;;;2.58;1.23;;;;;;;44.29;16.52;100939.44;5070184;28;20046;-70
2021/06/19 10:55:09;;;;;;;1.98;1.27;;;;;;;43.84;16.12;100941.50;5090615;28;20071;-69
2021/06/19 10:57:52;;;;;;;5.63;1.50;;;;;;;44.84;15.22;100938.09;5080059;28;20180;-69
2021/06/19 11:00:31;;;;;;;2.03;1.15;;;;;;;44.84;14.43;100936.25;5083717;28;20032;-70
2021/06/19 11:03:05;;;;;;;3.90;1.40;;;;;;;44.34;15.67;100931.72;5084948;28;20024;-70
2021/06/19 11:11:02;;;;;;;6.03;1.30;;;;;;;42.34;17.41;100931.38;6039966;22;20062;-73
2021/06/19 11:13:31;;;;;;;2.28;1.10;;;;;;;41.84;17.78;100945.25;5044591;28;20065;-73
2021/06/19 11:16:01;;;;;;;2.92;1.38;;;;;;;40.53;19.65;100947.88;5073922;28;20508;-73
2021/06/19 11:18:45;;;;;;;3.80;1.38;;;;;;;38.84;20.69;100941.44;5055228;28;20029;-73
2021/06/19 11:21:19;;;;;;;4.18;1.30;;;;;;;37.44;23.24;100939.25;5077793;28;20388;-73
2021/06/19 11:23:59;;;;;;;4.22;1.30;;;;;;;36.19;25.03;100928.38;5068074;28;20024;-73
2021/06/19 11:33:15;;;;;;;3.38;1.52;;;;;;;35.30;26.10;100940.06;5066824;28;20042;-72
2021/06/19 11:35:41;;;;;;;5.90;2.50;;;;;;;35.38;26.60;100937.88;5067903;28;20028;-72